< < Back
Terminal Aerodrome Forecast


Current Version              Previous Versions:   1  2  3  4  5  6  7  8  9  

Terminal Aerodrome Forecast

028
FTUS42 KFFC 242300
TAFAHN
TAF
KAHN 242320Z 2500/2524 00000KT P6SM SKC
     FM251500 33005KT P6SM SKC=

Latest METAR

443
SAUS70 KWBC 250600
MTRAHN
METAR KAHN 250551Z AUTO 00000KT 10SM CLR 09/08 A3001 RMK AO2 SLP160
T00890078 10139 20078 56003


USA.gov is the U.S. government's official web portal to all federal, state and local government web resources and services.